createdAt,value
2022-10-22T00:00:32.332Z,89
2022-10-22T00:01:31.690Z,88
2022-10-22T00:02:32.238Z,88
2022-10-22T00:03:32.086Z,88
2022-10-22T00:04:34.587Z,88
2022-10-22T00:05:31.709Z,88
2022-10-22T00:06:32.101Z,87
2022-10-22T00:07:32.145Z,87
2022-10-22T00:08:32.167Z,87
2022-10-22T00:09:31.667Z,87
2022-10-22T00:10:32.107Z,87
2022-10-22T00:11:32.071Z,87
2022-10-22T00:12:32.097Z,87
2022-10-22T00:13:31.658Z,86
2022-10-22T00:14:32.103Z,86
2022-10-22T00:15:32.051Z,86
2022-10-22T00:16:32.082Z,86
2022-10-22T00:17:31.633Z,86
2022-10-22T00:18:32.104Z,86
2022-10-22T00:19:32.055Z,86
2022-10-22T00:20:32.105Z,86
2022-10-22T00:21:31.663Z,86
2022-10-22T00:22:32.214Z,86
2022-10-22T00:23:32.106Z,86
2022-10-22T00:24:32.093Z,86
2022-10-22T00:25:31.666Z,86
2022-10-22T00:26:32.106Z,86
2022-10-22T00:27:32.089Z,86
2022-10-22T00:28:32.094Z,86
2022-10-22T00:29:31.652Z,86
2022-10-22T00:30:32.117Z,86
2022-10-22T00:31:32.082Z,86
2022-10-22T00:32:32.095Z,86
2022-10-22T00:33:31.652Z,86
2022-10-22T00:34:32.159Z,86
2022-10-22T00:35:32.068Z,86
2022-10-22T00:36:32.087Z,86
2022-10-22T00:37:31.617Z,86
2022-10-22T00:38:32.085Z,86
2022-10-22T00:39:32.076Z,86
2022-10-22T00:40:32.211Z,86
2022-10-22T00:41:31.661Z,86
2022-10-22T00:42:32.089Z,86
2022-10-22T00:43:32.090Z,86
2022-10-22T00:44:32.122Z,86
2022-10-22T00:45:31.648Z,86
2022-10-22T00:46:32.147Z,86
2022-10-22T00:47:32.063Z,86
2022-10-22T00:48:32.071Z,86
2022-10-22T00:49:31.583Z,86
2022-10-22T00:50:32.133Z,87
2022-10-22T00:51:32.054Z,87
2022-10-22T00:52:32.088Z,87
2022-10-22T00:53:31.611Z,87
2022-10-22T00:54:32.091Z,87
2022-10-22T00:55:32.061Z,87
2022-10-22T00:56:32.097Z,87
2022-10-22T00:57:31.680Z,87
2022-10-22T00:58:32.108Z,87
2022-10-22T00:59:32.088Z,87
2022-10-22T01:00:32.193Z,87
2022-10-22T01:01:31.633Z,87
2022-10-22T01:02:32.092Z,87
2022-10-22T01:03:32.080Z,87
2022-10-22T01:04:32.100Z,87
2022-10-22T01:05:31.594Z,87
2022-10-22T01:06:32.083Z,87
2022-10-22T01:07:32.066Z,87
2022-10-22T01:08:32.185Z,88
2022-10-22T01:09:31.618Z,88
2022-10-22T01:10:32.168Z,88
2022-10-22T01:11:32.044Z,88
2022-10-22T01:12:32.099Z,88
2022-10-22T01:13:31.586Z,88
2022-10-22T01:14:32.095Z,88
2022-10-22T01:15:32.101Z,88
2022-10-22T01:16:32.095Z,88
2022-10-22T01:17:31.578Z,88
2022-10-22T01:18:32.143Z,88
2022-10-22T01:19:32.049Z,88
2022-10-22T01:20:32.081Z,88
2022-10-22T01:21:31.567Z,88
2022-10-22T01:22:32.099Z,89
2022-10-22T01:23:32.044Z,89
2022-10-22T01:24:32.150Z,89
2022-10-22T01:25:31.578Z,89
2022-10-22T01:26:32.107Z,89
2022-10-22T01:27:32.067Z,89
2022-10-22T01:28:32.108Z,89
2022-10-22T01:29:31.584Z,89
2022-10-22T01:30:32.090Z,89
2022-10-22T01:31:32.059Z,89
2022-10-22T01:32:32.091Z,89
2022-10-22T01:33:31.564Z,89
2022-10-22T01:34:32.088Z,90
2022-10-22T01:36:32.088Z,90
2022-10-22T01:37:31.597Z,90
2022-10-22T01:38:32.106Z,90
2022-10-22T01:39:32.058Z,90
2022-10-22T01:40:32.215Z,90
2022-10-22T01:41:31.716Z,90
2022-10-22T01:42:32.212Z,90
2022-10-22T01:43:32.204Z,90
2022-10-22T01:44:32.355Z,90
2022-10-22T01:45:31.688Z,90
2022-10-22T01:46:32.292Z,90
2022-10-22T01:47:32.164Z,90
2022-10-22T01:48:32.359Z,90
2022-10-22T01:49:31.564Z,90
2022-10-22T01:50:32.089Z,90
2022-10-22T01:51:32.061Z,90
2022-10-22T01:52:32.083Z,90
2022-10-22T01:53:31.611Z,90
2022-10-22T01:54:32.091Z,90
2022-10-22T01:55:32.113Z,90
2022-10-22T01:56:32.100Z,90
2022-10-22T01:57:31.519Z,90
2022-10-22T01:58:32.098Z,90
2022-10-22T01:59:32.075Z,90
2022-10-22T02:00:32.105Z,90
2022-10-22T02:01:31.669Z,90
2022-10-22T02:02:32.076Z,90
2022-10-22T02:03:32.066Z,90
2022-10-22T02:04:32.097Z,90
2022-10-22T02:05:31.544Z,90
2022-10-22T02:06:32.096Z,90
2022-10-22T02:07:32.062Z,90
2022-10-22T02:08:32.140Z,90
2022-10-22T02:09:31.558Z,90
2022-10-22T02:10:32.105Z,90
2022-10-22T02:11:32.048Z,90
2022-10-22T02:12:32.080Z,90
2022-10-22T02:13:31.506Z,90
2022-10-22T02:14:32.077Z,90
2022-10-22T02:15:32.040Z,90
2022-10-22T02:16:32.105Z,90
2022-10-22T02:17:31.545Z,90
2022-10-22T02:18:35.265Z,90
2022-10-22T02:19:32.047Z,90
2022-10-22T02:20:32.076Z,90
2022-10-22T02:21:31.579Z,90
2022-10-22T02:22:32.078Z,90
2022-10-22T02:23:32.065Z,90
2022-10-22T02:24:32.088Z,90
2022-10-22T02:25:31.484Z,90
2022-10-22T02:26:32.089Z,89
2022-10-22T02:27:32.069Z,89
2022-10-22T02:28:32.123Z,89
2022-10-22T02:29:31.494Z,90
2022-10-22T02:30:32.065Z,89
2022-10-22T02:31:32.093Z,89
2022-10-22T02:32:32.090Z,89
2022-10-22T02:33:31.521Z,89
2022-10-22T02:34:32.121Z,89
2022-10-22T02:35:32.103Z,89
2022-10-22T02:36:32.073Z,89
2022-10-22T02:37:31.522Z,89
2022-10-22T02:38:32.089Z,89
2022-10-22T02:39:32.063Z,89
2022-10-22T02:40:32.076Z,89
2022-10-22T02:41:31.542Z,89
2022-10-22T02:42:32.075Z,89
2022-10-22T02:43:32.153Z,89
2022-10-22T02:44:32.081Z,89
2022-10-22T02:45:31.586Z,89
2022-10-22T02:46:32.066Z,89
2022-10-22T02:47:32.035Z,89
2022-10-22T02:48:32.113Z,89
2022-10-22T02:49:31.493Z,89
2022-10-22T02:50:32.117Z,89
2022-10-22T02:51:32.057Z,89
2022-10-22T02:52:32.067Z,89
2022-10-22T02:53:31.494Z,89
2022-10-22T02:54:32.048Z,89
2022-10-22T02:55:32.086Z,89
2022-10-22T02:56:32.037Z,89
2022-10-22T02:57:31.431Z,89
2022-10-22T02:58:32.088Z,89
2022-10-22T02:59:32.096Z,88
2022-10-22T03:00:32.093Z,88
2022-10-22T03:01:31.448Z,88
2022-10-22T03:02:32.088Z,88
2022-10-22T03:03:32.066Z,88
2022-10-22T03:04:32.084Z,88
2022-10-22T03:05:31.493Z,88
2022-10-22T03:06:32.084Z,88
2022-10-22T03:07:32.102Z,88
2022-10-22T03:08:32.119Z,88
2022-10-22T03:09:31.489Z,88
2022-10-22T03:10:32.085Z,88
2022-10-22T03:11:32.114Z,88
2022-10-22T03:12:32.158Z,88
2022-10-22T03:13:31.510Z,88
2022-10-22T03:14:32.126Z,88
2022-10-22T03:15:32.169Z,88
2022-10-22T03:16:32.076Z,88
2022-10-22T03:17:31.554Z,88
2022-10-22T03:18:32.233Z,88
2022-10-22T03:19:32.237Z,88
2022-10-22T03:20:32.213Z,88
2022-10-22T03:21:31.561Z,88
2022-10-22T03:22:32.204Z,88
2022-10-22T03:23:32.168Z,88
2022-10-22T03:24:32.213Z,88
2022-10-22T03:25:31.502Z,88
2022-10-22T03:26:32.169Z,88
2022-10-22T03:27:32.091Z,89
2022-10-22T03:28:32.064Z,89
2022-10-22T03:29:31.465Z,89
2022-10-22T03:30:32.225Z,89
2022-10-22T03:31:32.198Z,89
2022-10-22T03:32:32.151Z,89
2022-10-22T03:33:31.561Z,89
2022-10-22T03:34:32.068Z,89
2022-10-22T03:35:32.083Z,89
2022-10-22T03:36:32.034Z,89
2022-10-22T03:37:31.428Z,89
2022-10-22T03:38:32.098Z,89
2022-10-22T03:39:32.096Z,89
2022-10-22T03:40:32.134Z,89
2022-10-22T03:41:31.571Z,89
2022-10-22T03:42:32.218Z,89
2022-10-22T03:43:32.206Z,89
2022-10-22T03:44:32.051Z,88
2022-10-22T03:45:31.513Z,88
2022-10-22T03:46:32.095Z,88
2022-10-22T03:47:32.067Z,88
2022-10-22T03:48:32.034Z,88
2022-10-22T03:49:31.420Z,88
2022-10-22T03:50:32.075Z,88
2022-10-22T03:51:32.063Z,88
2022-10-22T03:52:32.043Z,87
2022-10-22T03:53:31.430Z,87
2022-10-22T03:54:32.146Z,87
2022-10-22T03:55:32.059Z,87
2022-10-22T03:56:32.148Z,87
2022-10-22T03:57:31.427Z,87
2022-10-22T03:58:32.080Z,87
2022-10-22T03:59:32.038Z,87
2022-10-22T04:00:32.093Z,87
2022-10-22T04:01:31.441Z,87
2022-10-22T04:02:32.066Z,87
2022-10-22T04:03:32.055Z,87
2022-10-22T04:04:32.055Z,87
2022-10-22T04:05:31.412Z,87
2022-10-22T04:06:32.077Z,87
2022-10-22T04:07:32.045Z,86
2022-10-22T04:08:32.082Z,86
2022-10-22T04:09:31.440Z,86
2022-10-22T04:10:32.079Z,86
2022-10-22T04:11:32.052Z,86
2022-10-22T04:12:32.062Z,86
2022-10-22T04:13:31.414Z,86
2022-10-22T04:14:32.100Z,86
2022-10-22T04:15:32.139Z,86
2022-10-22T04:16:32.094Z,86
2022-10-22T04:17:31.431Z,86
2022-10-22T04:18:32.073Z,86
2022-10-22T04:19:32.199Z,85
2022-10-22T04:20:32.108Z,85
2022-10-22T04:21:31.448Z,85
2022-10-22T04:22:32.255Z,85
2022-10-22T04:23:32.042Z,85
2022-10-22T04:24:32.077Z,85
2022-10-22T04:25:31.401Z,85
2022-10-22T04:26:32.121Z,85
2022-10-22T04:27:32.010Z,85
2022-10-22T04:28:32.065Z,85
2022-10-22T04:29:31.403Z,85
2022-10-22T04:30:32.067Z,85
2022-10-22T04:31:32.050Z,85
2022-10-22T04:32:32.072Z,85
2022-10-22T04:33:31.361Z,85
2022-10-22T04:34:32.038Z,85
2022-10-22T04:35:32.119Z,84
2022-10-22T04:36:32.244Z,84
2022-10-22T04:37:31.353Z,84
2022-10-22T04:38:32.082Z,84
2022-10-22T04:39:32.029Z,84
2022-10-22T04:40:32.064Z,84
2022-10-22T04:41:31.388Z,84
2022-10-22T04:42:32.079Z,84
2022-10-22T04:43:32.044Z,84
2022-10-22T04:44:32.069Z,84
2022-10-22T04:45:31.400Z,84
2022-10-22T04:46:32.127Z,83
2022-10-22T04:47:32.079Z,83
2022-10-22T04:48:32.073Z,83
2022-10-22T04:49:31.385Z,83
2022-10-22T04:50:32.059Z,83
2022-10-22T04:51:32.030Z,83
2022-10-22T04:52:32.072Z,83
2022-10-22T04:53:32.116Z,83
2022-10-22T04:54:33.156Z,83
2022-10-22T04:55:32.055Z,83
2022-10-22T04:56:32.058Z,83
2022-10-22T04:57:31.366Z,83
2022-10-22T04:58:32.165Z,83
2022-10-22T04:59:32.061Z,83
2022-10-22T05:00:32.231Z,83
2022-10-22T05:01:31.503Z,83
2022-10-22T05:02:32.031Z,83
2022-10-22T05:03:32.073Z,82
2022-10-22T05:04:32.062Z,82
2022-10-22T05:05:32.070Z,82
2022-10-22T05:06:32.024Z,82
2022-10-22T05:07:32.097Z,82
2022-10-22T05:08:32.099Z,83
2022-10-22T05:09:32.084Z,83
2022-10-22T05:10:32.044Z,83
2022-10-22T05:11:32.074Z,83
2022-10-22T05:12:32.054Z,82
2022-10-22T05:13:31.362Z,82
2022-10-22T05:14:32.083Z,82
2022-10-22T05:15:32.086Z,82
2022-10-22T05:16:32.244Z,82
2022-10-22T05:17:31.380Z,82
2022-10-22T05:18:32.056Z,82
2022-10-22T05:19:32.079Z,82
2022-10-22T05:20:32.046Z,82
2022-10-22T05:21:31.369Z,82
2022-10-22T05:22:32.035Z,82
2022-10-22T05:23:32.055Z,82
2022-10-22T05:24:32.056Z,82
2022-10-22T05:25:32.083Z,82
2022-10-22T05:26:32.037Z,82
2022-10-22T05:27:32.084Z,82
2022-10-22T05:28:32.083Z,82
2022-10-22T05:29:32.070Z,82
2022-10-22T05:30:32.037Z,82
2022-10-22T05:31:32.074Z,82
2022-10-22T05:32:32.050Z,82
2022-10-22T05:33:32.074Z,82
2022-10-22T05:34:32.039Z,82
2022-10-22T05:35:32.050Z,82
2022-10-22T05:36:32.205Z,82
2022-10-22T05:37:32.073Z,82
2022-10-22T05:38:32.035Z,82
2022-10-22T05:39:32.050Z,82
2022-10-22T05:40:32.057Z,82
2022-10-22T05:41:32.069Z,82
2022-10-22T05:42:32.048Z,82
2022-10-22T05:43:32.067Z,82
2022-10-22T05:44:32.053Z,82
2022-10-22T05:45:32.044Z,82
2022-10-22T05:46:32.034Z,82
2022-10-22T05:47:32.067Z,82
2022-10-22T05:49:32.103Z,82
2022-10-22T05:50:32.049Z,82
2022-10-22T05:51:32.053Z,82
2022-10-22T05:52:32.053Z,82
2022-10-22T05:53:32.233Z,83
2022-10-22T05:54:32.049Z,83
2022-10-22T05:55:32.051Z,83
2022-10-22T05:56:32.052Z,83
2022-10-22T05:57:32.053Z,83
2022-10-22T05:58:32.057Z,83
2022-10-22T05:59:32.068Z,83
2022-10-22T06:00:32.036Z,83
2022-10-22T06:01:32.093Z,83
2022-10-22T06:02:32.105Z,83
2022-10-22T06:03:32.062Z,83
2022-10-22T06:04:32.089Z,83
2022-10-22T06:05:32.057Z,83
2022-10-22T06:06:32.081Z,83
2022-10-22T06:07:32.095Z,83
2022-10-22T06:08:32.086Z,83
2022-10-22T06:09:32.116Z,83
2022-10-22T06:10:32.092Z,83
2022-10-22T06:11:34.985Z,83
2022-10-22T06:12:32.050Z,83
2022-10-22T06:13:31.981Z,83
2022-10-22T06:14:32.090Z,83
2022-10-22T06:15:32.027Z,83
2022-10-22T06:16:32.053Z,83
2022-10-22T06:17:32.060Z,83
2022-10-22T06:18:32.064Z,84
2022-10-22T06:19:32.057Z,84
2022-10-22T06:20:32.069Z,84
2022-10-22T06:21:32.053Z,84
2022-10-22T06:22:32.063Z,84
2022-10-22T06:23:32.004Z,84
2022-10-22T06:24:32.086Z,84
2022-10-22T06:25:32.050Z,84
2022-10-22T06:26:32.089Z,83
2022-10-22T06:27:32.029Z,84
2022-10-22T06:28:32.078Z,84
2022-10-22T06:29:32.060Z,83
2022-10-22T06:30:32.043Z,84
2022-10-22T06:31:32.045Z,83
2022-10-22T06:32:32.062Z,84
2022-10-22T06:33:32.047Z,84
2022-10-22T06:34:32.062Z,84
2022-10-22T06:35:32.186Z,83
2022-10-22T06:36:32.099Z,83
2022-10-22T06:37:32.137Z,84
2022-10-22T06:38:32.046Z,84
2022-10-22T06:39:32.023Z,84
2022-10-22T06:40:32.081Z,84
2022-10-22T06:41:32.143Z,84
2022-10-22T06:42:32.185Z,84
2022-10-22T06:43:32.097Z,84
2022-10-22T06:44:32.094Z,84
2022-10-22T06:45:32.070Z,84
2022-10-22T06:46:32.085Z,84
2022-10-22T06:47:32.040Z,84
2022-10-22T06:48:32.082Z,84
2022-10-22T06:49:32.056Z,84
2022-10-22T06:50:32.085Z,84
2022-10-22T06:51:32.031Z,85
2022-10-22T06:52:32.048Z,85
2022-10-22T06:53:32.413Z,84
2022-10-22T06:54:32.134Z,84
2022-10-22T06:55:32.081Z,84
2022-10-22T06:56:32.066Z,84
2022-10-22T06:57:32.117Z,84
2022-10-22T06:58:32.086Z,84
2022-10-22T06:59:32.108Z,84
2022-10-22T07:01:32.105Z,84
2022-10-22T07:02:32.019Z,84
2022-10-22T07:03:32.057Z,84
2022-10-22T07:04:32.058Z,84
2022-10-22T07:05:32.286Z,84
2022-10-22T07:06:32.032Z,84
2022-10-22T07:07:32.095Z,84
2022-10-22T07:08:32.149Z,84
2022-10-22T07:09:32.050Z,84
2022-10-22T07:10:32.122Z,84
2022-10-22T07:11:32.071Z,85
2022-10-22T07:12:32.065Z,85
2022-10-22T07:13:32.061Z,85
2022-10-22T07:14:32.047Z,85
2022-10-22T07:15:32.036Z,84
2022-10-22T07:16:32.517Z,85
2022-10-22T07:17:32.105Z,85
2022-10-22T07:18:32.063Z,85
2022-10-22T07:19:32.199Z,85
2022-10-22T07:20:32.037Z,85
2022-10-22T07:21:32.043Z,85
2022-10-22T07:22:32.064Z,85
2022-10-22T07:23:32.035Z,85
2022-10-22T07:24:32.123Z,85
2022-10-22T07:25:32.053Z,84
2022-10-22T07:26:32.056Z,84
2022-10-22T07:27:32.079Z,84
2022-10-22T07:28:32.027Z,84
2022-10-22T07:29:32.063Z,84
2022-10-22T07:30:32.209Z,84
2022-10-22T07:31:32.034Z,84
2022-10-22T07:32:32.009Z,84
2022-10-22T07:33:32.064Z,84
2022-10-22T07:34:32.055Z,84
2022-10-22T07:35:32.034Z,84
2022-10-22T07:36:32.042Z,84
2022-10-22T07:37:32.058Z,84
2022-10-22T07:38:32.058Z,84
2022-10-22T07:39:32.057Z,84
2022-10-22T07:40:32.006Z,84
2022-10-22T07:41:32.042Z,84
2022-10-22T07:42:32.064Z,84
2022-10-22T07:43:32.035Z,84
2022-10-22T07:44:32.027Z,84
2022-10-22T07:45:32.050Z,84
2022-10-22T07:46:32.064Z,84
2022-10-22T07:47:32.042Z,84
2022-10-22T07:48:32.066Z,84
2022-10-22T07:49:32.062Z,84
2022-10-22T07:50:32.093Z,84
2022-10-22T07:51:32.047Z,84
2022-10-22T07:52:32.043Z,84
2022-10-22T07:53:32.122Z,84
2022-10-22T07:54:32.073Z,84
2022-10-22T07:55:32.022Z,84
2022-10-22T07:56:32.045Z,84
2022-10-22T07:57:32.167Z,84
2022-10-22T07:58:32.059Z,84
2022-10-22T07:59:32.011Z,84
2022-10-22T08:00:32.078Z,84
2022-10-22T08:01:32.096Z,84
2022-10-22T08:02:32.075Z,84
2022-10-22T08:03:32.023Z,84
2022-10-22T08:04:32.081Z,84
2022-10-22T08:05:32.118Z,84
2022-10-22T08:06:32.079Z,84
2022-10-22T08:07:32.041Z,84
2022-10-22T08:08:32.068Z,84
2022-10-22T08:09:32.060Z,84
2022-10-22T08:10:32.048Z,84
2022-10-22T08:11:32.046Z,84
2022-10-22T08:12:32.030Z,84
2022-10-22T08:13:32.057Z,84
2022-10-22T08:14:32.046Z,84
2022-10-22T08:15:32.074Z,84
2022-10-22T08:16:32.022Z,84
2022-10-22T08:17:32.021Z,84
2022-10-22T08:18:32.034Z,84
2022-10-22T08:19:32.091Z,84
2022-10-22T08:20:32.067Z,84
2022-10-22T08:21:32.046Z,84
2022-10-22T08:22:32.060Z,84
2022-10-22T08:23:32.045Z,84
2022-10-22T08:24:32.032Z,84
2022-10-22T08:25:32.039Z,84
2022-10-22T08:26:32.039Z,84
2022-10-22T08:27:32.053Z,84
2022-10-22T08:28:32.036Z,84
2022-10-22T08:29:32.174Z,84
2022-10-22T08:30:32.065Z,84
2022-10-22T08:31:32.033Z,84
2022-10-22T08:32:32.028Z,84
2022-10-22T08:33:32.023Z,84
2022-10-22T08:34:32.056Z,84
2022-10-22T08:35:32.041Z,84
2022-10-22T08:36:32.020Z,84
2022-10-22T08:37:32.074Z,84
2022-10-22T08:38:32.051Z,84
2022-10-22T08:39:32.065Z,84
2022-10-22T08:40:32.044Z,84
2022-10-22T08:41:32.041Z,84
2022-10-22T08:42:32.036Z,84
2022-10-22T08:43:32.055Z,84
2022-10-22T08:44:32.040Z,84
2022-10-22T08:45:32.026Z,84
2022-10-22T08:46:32.047Z,84
2022-10-22T08:47:32.051Z,84
2022-10-22T08:48:32.016Z,83
2022-10-22T08:49:32.044Z,83
2022-10-22T08:50:32.022Z,84
2022-10-22T08:51:32.030Z,83
2022-10-22T08:52:32.009Z,83
2022-10-22T08:53:32.051Z,83
2022-10-22T08:54:32.056Z,83
2022-10-22T08:55:36.503Z,83
2022-10-22T08:56:32.047Z,83
2022-10-22T08:58:32.037Z,83
2022-10-22T08:59:32.069Z,83
2022-10-22T09:00:32.043Z,83
2022-10-22T09:01:32.033Z,83
2022-10-22T09:02:32.054Z,83
2022-10-22T09:03:32.061Z,83
2022-10-22T09:04:32.205Z,83
2022-10-22T09:05:32.030Z,83
2022-10-22T09:06:32.033Z,83
2022-10-22T09:07:32.119Z,83
2022-10-22T09:08:32.137Z,83
2022-10-22T09:09:32.026Z,83
2022-10-22T09:10:32.022Z,83
2022-10-22T09:11:32.026Z,83
2022-10-22T09:12:32.037Z,83
2022-10-22T09:13:31.991Z,83
2022-10-22T09:14:32.021Z,83
2022-10-22T09:15:32.056Z,83
2022-10-22T09:16:32.036Z,83
2022-10-22T09:17:32.033Z,83
2022-10-22T09:18:32.033Z,83
2022-10-22T09:19:33.230Z,83
2022-10-22T09:20:32.047Z,83
2022-10-22T09:21:31.998Z,83
2022-10-22T09:22:32.215Z,83
2022-10-22T09:23:32.051Z,83
2022-10-22T09:24:32.979Z,83
2022-10-22T09:25:32.042Z,83
2022-10-22T09:26:32.050Z,83
2022-10-22T09:27:32.058Z,83
2022-10-22T09:28:32.029Z,83
2022-10-22T09:29:32.051Z,83
2022-10-22T09:30:32.055Z,83
2022-10-22T09:31:32.026Z,83
2022-10-22T09:32:32.042Z,83
2022-10-22T09:33:32.020Z,83
2022-10-22T09:34:32.043Z,83
2022-10-22T09:35:32.027Z,83
2022-10-22T09:36:32.022Z,83
2022-10-22T09:37:32.006Z,83
2022-10-22T09:38:32.012Z,83
2022-10-22T09:39:32.036Z,83
2022-10-22T09:40:32.035Z,83
2022-10-22T09:41:32.010Z,83
2022-10-22T09:42:32.049Z,83
2022-10-22T09:43:32.110Z,83
2022-10-22T09:44:32.021Z,83
2022-10-22T09:45:32.018Z,83
2022-10-22T09:46:32.044Z,83
2022-10-22T09:47:42.797Z,83
2022-10-22T09:48:32.093Z,83
2022-10-22T09:49:32.017Z,83
2022-10-22T09:50:32.030Z,83
2022-10-22T09:51:32.024Z,83
2022-10-22T09:52:32.098Z,83
2022-10-22T09:53:32.010Z,83
2022-10-22T09:54:32.041Z,83
2022-10-22T09:55:32.045Z,83
2022-10-22T09:56:32.039Z,83
2022-10-22T09:57:32.053Z,83
2022-10-22T09:58:32.019Z,83
2022-10-22T09:59:32.039Z,83
2022-10-22T10:00:32.021Z,83
2022-10-22T10:01:32.019Z,83
2022-10-22T10:02:38.494Z,83
2022-10-22T10:03:32.123Z,83
2022-10-22T10:04:32.031Z,83
2022-10-22T10:05:32.105Z,83
2022-10-22T10:06:32.142Z,83
2022-10-22T10:07:32.021Z,83
2022-10-22T10:08:32.200Z,83
2022-10-22T10:09:32.061Z,83
2022-10-22T10:10:32.099Z,83
2022-10-22T10:11:32.029Z,83
2022-10-22T10:12:32.136Z,83
2022-10-22T10:13:32.044Z,83
2022-10-22T10:14:32.016Z,83
2022-10-22T10:15:32.052Z,83
2022-10-22T10:16:32.054Z,83
2022-10-22T10:17:32.032Z,83
2022-10-22T10:18:31.996Z,83
2022-10-22T10:19:32.040Z,83
2022-10-22T10:20:32.069Z,83
2022-10-22T10:21:32.036Z,83
2022-10-22T10:22:32.003Z,83
2022-10-22T10:23:32.032Z,83
2022-10-22T10:24:32.040Z,83
2022-10-22T10:25:32.033Z,83
2022-10-22T10:26:32.088Z,83
2022-10-22T10:27:32.024Z,83
2022-10-22T10:28:32.051Z,83
2022-10-22T10:29:32.095Z,83
2022-10-22T10:30:32.390Z,83
2022-10-22T10:38:19.256Z,83
2022-10-22T10:39:23.043Z,82
2022-10-22T10:40:26.994Z,83
2022-10-22T10:41:31.077Z,83
2022-10-22T10:42:32.077Z,83
2022-10-22T10:43:32.081Z,83
2022-10-22T10:44:32.110Z,83
2022-10-22T10:45:32.063Z,83
2022-10-22T10:46:34.804Z,83
2022-10-22T10:47:32.139Z,83
2022-10-22T10:48:32.050Z,83
2022-10-22T10:49:32.081Z,83
2022-10-22T10:50:32.151Z,83
2022-10-22T10:51:32.094Z,83
2022-10-22T10:52:32.026Z,83
2022-10-22T10:53:32.053Z,82
2022-10-22T10:54:32.137Z,82
2022-10-22T10:55:32.057Z,83
2022-10-22T10:56:34.427Z,83
2022-10-22T10:57:32.035Z,82
2022-10-22T10:58:32.032Z,82
2022-10-22T10:59:32.075Z,82
2022-10-22T11:00:32.043Z,83
2022-10-22T11:01:32.075Z,83
2022-10-22T11:02:32.003Z,83
2022-10-22T11:03:32.033Z,83
2022-10-22T11:04:32.059Z,83
2022-10-22T11:05:32.050Z,83
2022-10-22T11:06:32.017Z,83
2022-10-22T11:07:34.908Z,83
2022-10-22T11:08:33.182Z,84
2022-10-22T11:09:46.961Z,84
2022-10-22T11:10:50.951Z,84
2022-10-22T11:11:55.004Z,85
2022-10-22T11:12:58.988Z,85
2022-10-22T11:14:02.997Z,85
2022-10-22T11:15:06.945Z,85
2022-10-22T11:16:10.939Z,85
2022-10-22T11:17:14.981Z,85
2022-10-22T11:18:18.979Z,86
2022-10-22T11:19:39.376Z,86
2022-10-22T11:20:27.233Z,86
2022-10-22T11:21:30.997Z,86
2022-10-22T11:22:32.062Z,87
2022-10-22T11:23:32.025Z,87
2022-10-22T11:24:32.113Z,87
2022-10-22T11:25:32.067Z,87
2022-10-22T11:26:32.035Z,87
2022-10-22T11:27:32.017Z,88
2022-10-22T11:28:32.068Z,88
2022-10-22T11:29:33.004Z,88
2022-10-22T11:30:32.032Z,88
2022-10-22T11:31:32.094Z,88
2022-10-22T11:32:32.099Z,88
2022-10-22T11:33:32.038Z,88
2022-10-22T11:34:33.982Z,89
2022-10-22T11:35:32.024Z,89
2022-10-22T11:37:32.037Z,89
2022-10-22T11:38:34.179Z,89
2022-10-22T11:39:31.999Z,89
2022-10-22T11:40:32.216Z,89
2022-10-22T11:41:32.110Z,89
2022-10-22T11:42:32.014Z,89
2022-10-22T11:43:32.033Z,90
2022-10-22T11:44:32.048Z,90
2022-10-22T11:45:32.041Z,90
2022-10-22T11:46:32.028Z,90
2022-10-22T11:47:31.990Z,90
2022-10-22T11:48:32.054Z,90
2022-10-22T11:49:32.064Z,90
2022-10-22T11:50:32.053Z,90
2022-10-22T11:51:32.006Z,90
2022-10-22T11:52:32.029Z,89
2022-10-22T11:53:32.025Z,89
2022-10-22T11:54:32.056Z,90
2022-10-22T11:55:32.146Z,89
2022-10-22T11:56:32.021Z,89
2022-10-22T11:57:32.020Z,89
2022-10-22T11:58:32.007Z,90
2022-10-22T11:59:32.180Z,90
2022-10-22T12:00:32.035Z,90
2022-10-22T12:01:32.040Z,90
2022-10-22T12:02:32.034Z,90
2022-10-22T12:03:32.114Z,90
2022-10-22T12:04:32.178Z,90
2022-10-22T12:05:32.017Z,90
2022-10-22T12:06:32.051Z,90
2022-10-22T12:07:32.016Z,90
2022-10-22T12:08:32.120Z,90
2022-10-22T12:09:32.062Z,90
2022-10-22T12:10:32.037Z,90
2022-10-22T12:11:32.035Z,90
2022-10-22T12:12:32.056Z,90
2022-10-22T12:13:31.996Z,90
2022-10-22T12:14:32.019Z,90
2022-10-22T12:15:32.048Z,89
2022-10-22T12:16:37.881Z,89
2022-10-22T12:17:32.050Z,89
2022-10-22T12:18:32.061Z,89
2022-10-22T12:19:32.044Z,89
2022-10-22T12:20:32.039Z,89
2022-10-22T12:21:32.017Z,89
2022-10-22T12:22:32.069Z,89
2022-10-22T12:23:32.025Z,88
2022-10-22T12:24:32.048Z,88
2022-10-22T12:25:35.447Z,88
2022-10-22T12:26:32.205Z,88
2022-10-22T12:27:32.015Z,88
2022-10-22T12:28:32.034Z,88
2022-10-22T12:29:32.076Z,88
2022-10-22T12:30:32.005Z,88
2022-10-22T12:31:31.972Z,88
2022-10-22T12:32:32.016Z,88
2022-10-22T12:33:32.077Z,88
2022-10-22T12:34:32.081Z,88
2022-10-22T12:35:32.005Z,88
2022-10-22T12:36:32.022Z,88
2022-10-22T12:37:32.042Z,88
2022-10-22T12:38:32.027Z,88
2022-10-22T12:39:32.020Z,88
2022-10-22T12:40:32.046Z,89
2022-10-22T12:41:32.036Z,88
2022-10-22T12:42:32.044Z,88
2022-10-22T12:43:32.026Z,89
2022-10-22T12:44:32.011Z,89
2022-10-22T12:45:33.021Z,89
2022-10-22T12:46:32.065Z,89
2022-10-22T12:47:32.004Z,89
2022-10-22T12:48:32.046Z,89
2022-10-22T12:49:32.016Z,88
2022-10-22T12:50:32.069Z,88
2022-10-22T12:52:32.020Z,88
2022-10-22T12:53:32.032Z,88
2022-10-22T12:54:32.030Z,88
2022-10-22T12:55:32.054Z,88
2022-10-22T12:56:32.005Z,89
2022-10-22T12:57:32.044Z,89
2022-10-22T12:58:32.117Z,89
2022-10-22T12:59:32.053Z,89
2022-10-22T13:00:32.086Z,89
2022-10-22T13:01:32.024Z,89
2022-10-22T13:02:32.026Z,89
2022-10-22T13:03:32.023Z,89
2022-10-22T13:04:32.017Z,88
2022-10-22T13:05:32.098Z,88
2022-10-22T13:06:32.003Z,88
2022-10-22T13:07:32.043Z,88
2022-10-22T13:08:32.079Z,88
2022-10-22T13:09:34.286Z,88
2022-10-22T13:10:32.124Z,88
2022-10-22T13:11:32.038Z,88
2022-10-22T13:12:31.970Z,88
2022-10-22T13:13:32.018Z,88
2022-10-22T13:14:32.040Z,88
2022-10-22T13:15:32.021Z,88
2022-10-22T13:16:32.056Z,88
2022-10-22T13:17:32.028Z,88
2022-10-22T13:18:32.027Z,88
2022-10-22T13:19:32.018Z,88
2022-10-22T13:20:32.009Z,88
2022-10-22T13:21:31.994Z,88
2022-10-22T13:22:32.113Z,88
2022-10-22T13:23:32.034Z,88
2022-10-22T13:24:31.990Z,88
2022-10-22T13:25:32.042Z,88
2022-10-22T13:26:32.020Z,89
2022-10-22T13:27:32.041Z,89
2022-10-22T13:28:31.997Z,88
2022-10-22T13:29:32.032Z,88
2022-10-22T13:30:32.017Z,88
2022-10-22T13:31:32.220Z,88
2022-10-22T13:32:32.017Z,88
2022-10-22T13:33:32.017Z,89
2022-10-22T13:34:32.033Z,89
2022-10-22T13:35:32.030Z,89
2022-10-22T13:36:32.007Z,89
2022-10-22T13:37:32.031Z,88
2022-10-22T13:38:32.013Z,88
2022-10-22T13:39:32.003Z,88
2022-10-22T13:40:32.823Z,88
2022-10-22T13:41:32.064Z,88
2022-10-22T13:42:32.044Z,88
2022-10-22T13:43:32.067Z,88
2022-10-22T13:44:32.006Z,88
2022-10-22T13:45:32.004Z,88
2022-10-22T13:46:32.037Z,88
2022-10-22T13:47:32.027Z,88
2022-10-22T13:48:32.005Z,88
2022-10-22T13:49:32.011Z,88
2022-10-22T13:50:32.006Z,88
2022-10-22T13:51:32.062Z,88
2022-10-22T13:52:32.037Z,89
2022-10-22T13:53:32.088Z,89
2022-10-22T13:54:32.008Z,89
2022-10-22T13:55:32.029Z,89
2022-10-22T13:56:32.000Z,89
2022-10-22T13:57:32.035Z,89
2022-10-22T13:58:32.003Z,89
2022-10-22T13:59:32.003Z,89
2022-10-22T14:00:32.103Z,89
2022-10-22T14:01:32.016Z,89
2022-10-22T14:02:31.992Z,89
2022-10-22T14:03:32.038Z,89
2022-10-22T14:04:31.981Z,89
2022-10-22T14:05:31.993Z,89
2022-10-22T14:06:32.115Z,89
2022-10-22T14:07:32.035Z,89
2022-10-22T14:08:32.059Z,89
2022-10-22T14:09:32.124Z,89
2022-10-22T14:10:32.009Z,89
2022-10-22T14:11:31.994Z,89
2022-10-22T14:12:31.996Z,89
2022-10-22T14:13:32.068Z,89
2022-10-22T14:14:32.084Z,89
2022-10-22T14:15:32.043Z,89
2022-10-22T14:16:31.977Z,89
2022-10-22T14:17:32.013Z,89
2022-10-22T14:18:32.008Z,89
2022-10-22T14:19:32.009Z,89
2022-10-22T14:20:32.052Z,89
2022-10-22T14:21:32.013Z,89
2022-10-22T14:22:32.027Z,89
2022-10-22T14:23:32.059Z,89
2022-10-22T14:24:32.005Z,89
2022-10-22T14:25:32.009Z,89
2022-10-22T14:26:31.980Z,89
2022-10-22T14:27:31.996Z,89
2022-10-22T14:28:40.933Z,89
2022-10-22T14:29:32.043Z,89